Beaver Bottom, Kentucky
Current Conditions -  °F | °C
As of 2:35 PM on Thursday 18 Dec 2014 (Local Time) from KPBX Reporting Station
Overcast Overcast  
Wind Chill: 32°   Ceiling: 7500
Heat Index: 36°   Visibility: 10mi
Dew Point: 24°   Wind: 5mph
Humidity: 62%   Direction: 290°WNW
Pressure: 30.13"   Gusts: NA
Location:  37.3089°N, 82.3418°W
Report Text: KPBX 181935Z AUTO 29004KT 10SM OVC075 02/M04 A3013 RMK AO2 T00201045
Loading
Personal Weather Stations






























Interactive Weather Map New forecast layout! Learn more

10-Day Weather Forecast

Advertisements
Track Severe Weather on mobile